sensor_id;sensor_type;location;lat;lon;timestamp;P1;durP1;ratioP1;P2;durP2;ratioP2
43311;SDS011;30041;48.300;16.352;2023-12-04T00:01:14;1.92;;;1.08;;
43311;SDS011;30041;48.300;16.352;2023-12-04T00:03:40;1.98;;;1.25;;
43311;SDS011;30041;48.300;16.352;2023-12-04T00:06:05;1.95;;;1.27;;
43311;SDS011;30041;48.300;16.352;2023-12-04T00:08:32;2.08;;;1.30;;
43311;SDS011;30041;48.300;16.352;2023-12-04T00:10:57;1.90;;;1.20;;
43311;SDS011;30041;48.300;16.352;2023-12-04T00:13:23;2.25;;;1.40;;
43311;SDS011;30041;48.300;16.352;2023-12-04T00:15:48;1.77;;;1.02;;
43311;SDS011;30041;48.300;16.352;2023-12-04T00:18:14;2.25;;;1.20;;
43311;SDS011;30041;48.300;16.352;2023-12-04T00:20:39;1.88;;;1.20;;
43311;SDS011;30041;48.300;16.352;2023-12-04T00:23:04;2.03;;;1.13;;
43311;SDS011;30041;48.300;16.352;2023-12-04T00:25:30;2.50;;;1.02;;
43311;SDS011;30041;48.300;16.352;2023-12-04T00:27:55;2.13;;;1.20;;
43311;SDS011;30041;48.300;16.352;2023-12-04T00:30:20;1.77;;;1.10;;
43311;SDS011;30041;48.300;16.352;2023-12-04T00:32:46;1.90;;;1.20;;
43311;SDS011;30041;48.300;16.352;2023-12-04T00:35:11;2.00;;;1.10;;
43311;SDS011;30041;48.300;16.352;2023-12-04T00:37:38;1.90;;;0.95;;
43311;SDS011;30041;48.300;16.352;2023-12-04T00:40:03;1.85;;;1.10;;
43311;SDS011;30041;48.300;16.352;2023-12-04T00:42:30;1.38;;;1.00;;
43311;SDS011;30041;48.300;16.352;2023-12-04T00:44:55;1.33;;;1.00;;
43311;SDS011;30041;48.300;16.352;2023-12-04T00:47:21;1.48;;;1.02;;
43311;SDS011;30041;48.300;16.352;2023-12-04T00:49:46;1.45;;;0.90;;
43311;SDS011;30041;48.300;16.352;2023-12-04T00:52:12;1.48;;;0.80;;
43311;SDS011;30041;48.300;16.352;2023-12-04T00:54:40;1.60;;;1.00;;
43311;SDS011;30041;48.300;16.352;2023-12-04T00:57:05;2.40;;;1.10;;
43311;SDS011;30041;48.300;16.352;2023-12-04T00:59:31;1.92;;;1.00;;
43311;SDS011;30041;48.300;16.352;2023-12-04T01:01:56;1.50;;;1.00;;
43311;SDS011;30041;48.300;16.352;2023-12-04T01:04:22;1.35;;;1.00;;
43311;SDS011;30041;48.300;16.352;2023-12-04T01:06:47;1.98;;;1.10;;
43311;SDS011;30041;48.300;16.352;2023-12-04T01:09:12;1.88;;;1.00;;
43311;SDS011;30041;48.300;16.352;2023-12-04T01:11:38;1.83;;;1.08;;
43311;SDS011;30041;48.300;16.352;2023-12-04T01:14:03;2.03;;;1.15;;
43311;SDS011;30041;48.300;16.352;2023-12-04T01:16:28;1.38;;;1.00;;
43311;SDS011;30041;48.300;16.352;2023-12-04T01:18:53;2.08;;;0.98;;
43311;SDS011;30041;48.300;16.352;2023-12-04T01:21:19;1.70;;;0.90;;
43311;SDS011;30041;48.300;16.352;2023-12-04T01:23:44;1.40;;;1.13;;
43311;SDS011;30041;48.300;16.352;2023-12-04T01:26:10;1.38;;;0.77;;
43311;SDS011;30041;48.300;16.352;2023-12-04T01:28:35;1.23;;;0.80;;
43311;SDS011;30041;48.300;16.352;2023-12-04T01:31:00;1.38;;;0.93;;
43311;SDS011;30041;48.300;16.352;2023-12-04T01:33:26;1.85;;;1.10;;
43311;SDS011;30041;48.300;16.352;2023-12-04T01:35:51;1.70;;;1.00;;
43311;SDS011;30041;48.300;16.352;2023-12-04T01:38:16;2.33;;;0.90;;
43311;SDS011;30041;48.300;16.352;2023-12-04T01:40:42;1.80;;;1.00;;
43311;SDS011;30041;48.300;16.352;2023-12-04T01:43:07;1.67;;;0.93;;
43311;SDS011;30041;48.300;16.352;2023-12-04T01:45:32;1.45;;;0.90;;
43311;SDS011;30041;48.300;16.352;2023-12-04T01:47:58;1.67;;;0.82;;
43311;SDS011;30041;48.300;16.352;2023-12-04T01:50:23;0.93;;;0.70;;
43311;SDS011;30041;48.300;16.352;2023-12-04T01:52:49;1.45;;;0.90;;
43311;SDS011;30041;48.300;16.352;2023-12-04T01:55:16;1.15;;;0.88;;
43311;SDS011;30041;48.300;16.352;2023-12-04T01:57:42;0.90;;;0.63;;
43311;SDS011;30041;48.300;16.352;2023-12-04T02:00:08;1.42;;;0.90;;
43311;SDS011;30041;48.300;16.352;2023-12-04T02:02:34;1.00;;;0.70;;
43311;SDS011;30041;48.300;16.352;2023-12-04T02:04:59;1.27;;;0.70;;
43311;SDS011;30041;48.300;16.352;2023-12-04T02:07:26;1.27;;;0.82;;
43311;SDS011;30041;48.300;16.352;2023-12-04T02:09:51;1.00;;;0.57;;
43311;SDS011;30041;48.300;16.352;2023-12-04T02:12:17;1.40;;;0.90;;
43311;SDS011;30041;48.300;16.352;2023-12-04T02:14:42;0.90;;;0.70;;
43311;SDS011;30041;48.300;16.352;2023-12-04T02:17:08;0.93;;;0.70;;
43311;SDS011;30041;48.300;16.352;2023-12-04T02:19:34;1.40;;;0.90;;
43311;SDS011;30041;48.300;16.352;2023-12-04T02:22:00;0.73;;;0.60;;
43311;SDS011;30041;48.300;16.352;2023-12-04T02:24:25;0.90;;;0.68;;
43311;SDS011;30041;48.300;16.352;2023-12-04T02:27:04;0.80;;;0.60;;
43311;SDS011;30041;48.300;16.352;2023-12-04T02:29:46;0.90;;;0.60;;
43311;SDS011;30041;48.300;16.352;2023-12-04T02:32:17;1.20;;;0.70;;
43311;SDS011;30041;48.300;16.352;2023-12-04T02:34:44;0.70;;;0.70;;
43311;SDS011;30041;48.300;16.352;2023-12-04T02:37:12;0.88;;;0.65;;
43311;SDS011;30041;48.300;16.352;2023-12-04T02:39:38;1.10;;;0.80;;
43311;SDS011;30041;48.300;16.352;2023-12-04T02:42:04;1.10;;;0.60;;
43311;SDS011;30041;48.300;16.352;2023-12-04T02:44:29;0.80;;;0.60;;
43311;SDS011;30041;48.300;16.352;2023-12-04T02:46:54;1.60;;;0.80;;
43311;SDS011;30041;48.300;16.352;2023-12-04T02:49:20;0.73;;;0.60;;
43311;SDS011;30041;48.300;16.352;2023-12-04T02:51:46;1.15;;;0.80;;
43311;SDS011;30041;48.300;16.352;2023-12-04T02:54:11;1.08;;;0.73;;
43311;SDS011;30041;48.300;16.352;2023-12-04T02:56:37;1.08;;;0.70;;
43311;SDS011;30041;48.300;16.352;2023-12-04T02:59:02;1.00;;;0.70;;
43311;SDS011;30041;48.300;16.352;2023-12-04T03:01:28;1.20;;;0.70;;
43311;SDS011;30041;48.300;16.352;2023-12-04T03:03:53;0.80;;;0.60;;
43311;SDS011;30041;48.300;16.352;2023-12-04T03:06:18;0.90;;;0.70;;
43311;SDS011;30041;48.300;16.352;2023-12-04T03:08:44;1.35;;;0.82;;
43311;SDS011;30041;48.300;16.352;2023-12-04T03:11:09;0.70;;;0.50;;
43311;SDS011;30041;48.300;16.352;2023-12-04T03:13:34;0.70;;;0.50;;
43311;SDS011;30041;48.300;16.352;2023-12-04T03:16:00;0.85;;;0.60;;
43311;SDS011;30041;48.300;16.352;2023-12-04T03:18:25;1.00;;;0.70;;
43311;SDS011;30041;48.300;16.352;2023-12-04T03:20:51;0.60;;;0.50;;
43311;SDS011;30041;48.300;16.352;2023-12-04T03:23:16;0.85;;;0.50;;
43311;SDS011;30041;48.300;16.352;2023-12-04T03:25:42;1.00;;;0.70;;
43311;SDS011;30041;48.300;16.352;2023-12-04T03:28:07;0.80;;;0.68;;
43311;SDS011;30041;48.300;16.352;2023-12-04T03:30:32;1.15;;;0.60;;
43311;SDS011;30041;48.300;16.352;2023-12-04T03:32:58;1.00;;;0.60;;
43311;SDS011;30041;48.300;16.352;2023-12-04T03:35:23;0.52;;;0.40;;
43311;SDS011;30041;48.300;16.352;2023-12-04T03:37:49;0.82;;;0.60;;
43311;SDS011;30041;48.300;16.352;2023-12-04T03:40:14;0.63;;;0.50;;
43311;SDS011;30041;48.300;16.352;2023-12-04T03:42:40;1.00;;;0.65;;
43311;SDS011;30041;48.300;16.352;2023-12-04T03:45:06;0.82;;;0.70;;
43311;SDS011;30041;48.300;16.352;2023-12-04T03:47:31;0.68;;;0.47;;
43311;SDS011;30041;48.300;16.352;2023-12-04T03:49:57;0.80;;;0.55;;
43311;SDS011;30041;48.300;16.352;2023-12-04T03:52:22;1.05;;;0.52;;
43311;SDS011;30041;48.300;16.352;2023-12-04T03:54:47;1.05;;;0.52;;
43311;SDS011;30041;48.300;16.352;2023-12-04T03:57:13;0.70;;;0.43;;
43311;SDS011;30041;48.300;16.352;2023-12-04T03:59:38;0.82;;;0.50;;
43311;SDS011;30041;48.300;16.352;2023-12-04T04:02:03;0.82;;;0.57;;
43311;SDS011;30041;48.300;16.352;2023-12-04T04:04:29;0.73;;;0.55;;
43311;SDS011;30041;48.300;16.352;2023-12-04T04:06:54;1.00;;;0.68;;
43311;SDS011;30041;48.300;16.352;2023-12-04T04:09:19;0.77;;;0.43;;
43311;SDS011;30041;48.300;16.352;2023-12-04T04:11:45;0.40;;;0.30;;
43311;SDS011;30041;48.300;16.352;2023-12-04T04:14:10;0.63;;;0.40;;
43311;SDS011;30041;48.300;16.352;2023-12-04T04:16:36;0.85;;;0.50;;
43311;SDS011;30041;48.300;16.352;2023-12-04T04:19:01;0.70;;;0.50;;
43311;SDS011;30041;48.300;16.352;2023-12-04T04:21:26;0.52;;;0.40;;
43311;SDS011;30041;48.300;16.352;2023-12-04T04:23:52;0.52;;;0.40;;
43311;SDS011;30041;48.300;16.352;2023-12-04T04:26:17;0.88;;;0.50;;
43311;SDS011;30041;48.300;16.352;2023-12-04T04:28:42;0.57;;;0.40;;
43311;SDS011;30041;48.300;16.352;2023-12-04T04:31:08;0.82;;;0.52;;
43311;SDS011;30041;48.300;16.352;2023-12-04T04:33:33;1.00;;;0.50;;
43311;SDS011;30041;48.300;16.352;2023-12-04T04:36:01;0.47;;;0.40;;
43311;SDS011;30041;48.300;16.352;2023-12-04T04:38:26;0.63;;;0.40;;
43311;SDS011;30041;48.300;16.352;2023-12-04T04:40:51;0.60;;;0.40;;
43311;SDS011;30041;48.300;16.352;2023-12-04T04:43:17;0.50;;;0.40;;
43311;SDS011;30041;48.300;16.352;2023-12-04T04:45:42;0.60;;;0.50;;
43311;SDS011;30041;48.300;16.352;2023-12-04T04:48:07;0.55;;;0.50;;
43311;SDS011;30041;48.300;16.352;2023-12-04T04:50:33;0.47;;;0.40;;
43311;SDS011;30041;48.300;16.352;2023-12-04T04:52:58;0.60;;;0.40;;
43311;SDS011;30041;48.300;16.352;2023-12-04T04:55:23;0.52;;;0.40;;
43311;SDS011;30041;48.300;16.352;2023-12-04T04:57:49;0.30;;;0.30;;
43311;SDS011;30041;48.300;16.352;2023-12-04T05:00:14;0.80;;;0.50;;
43311;SDS011;30041;48.300;16.352;2023-12-04T05:02:40;0.47;;;0.40;;
43311;SDS011;30041;48.300;16.352;2023-12-04T05:05:06;0.77;;;0.43;;
43311;SDS011;30041;48.300;16.352;2023-12-04T05:07:31;0.50;;;0.30;;
43311;SDS011;30041;48.300;16.352;2023-12-04T05:09:57;0.65;;;0.50;;
43311;SDS011;30041;48.300;16.352;2023-12-04T05:12:22;0.43;;;0.40;;
43311;SDS011;30041;48.300;16.352;2023-12-04T05:14:47;0.70;;;0.47;;
43311;SDS011;30041;48.300;16.352;2023-12-04T05:17:13;0.35;;;0.30;;
43311;SDS011;30041;48.300;16.352;2023-12-04T05:19:38;0.65;;;0.50;;
43311;SDS011;30041;48.300;16.352;2023-12-04T05:22:03;0.40;;;0.38;;
43311;SDS011;30041;48.300;16.352;2023-12-04T05:24:29;0.45;;;0.35;;
43311;SDS011;30041;48.300;16.352;2023-12-04T05:26:54;0.57;;;0.40;;
43311;SDS011;30041;48.300;16.352;2023-12-04T05:29:19;0.50;;;0.40;;
43311;SDS011;30041;48.300;16.352;2023-12-04T05:31:46;0.50;;;0.40;;
43311;SDS011;30041;48.300;16.352;2023-12-04T05:34:12;1.00;;;0.50;;
43311;SDS011;30041;48.300;16.352;2023-12-04T05:36:37;0.38;;;0.38;;
43311;SDS011;30041;48.300;16.352;2023-12-04T05:39:03;0.30;;;0.30;;
43311;SDS011;30041;48.300;16.352;2023-12-04T05:41:28;0.52;;;0.40;;
43311;SDS011;30041;48.300;16.352;2023-12-04T05:43:53;0.40;;;0.40;;
43311;SDS011;30041;48.300;16.352;2023-12-04T05:46:19;0.50;;;0.40;;
43311;SDS011;30041;48.300;16.352;2023-12-04T05:48:44;0.68;;;0.50;;
43311;SDS011;30041;48.300;16.352;2023-12-04T05:51:09;0.40;;;0.30;;
43311;SDS011;30041;48.300;16.352;2023-12-04T05:53:35;0.80;;;0.50;;
43311;SDS011;30041;48.300;16.352;2023-12-04T05:56:00;0.70;;;0.40;;
43311;SDS011;30041;48.300;16.352;2023-12-04T05:58:26;0.60;;;0.47;;
43311;SDS011;30041;48.300;16.352;2023-12-04T06:00:51;0.70;;;0.40;;
43311;SDS011;30041;48.300;16.352;2023-12-04T06:03:16;0.70;;;0.40;;
43311;SDS011;30041;48.300;16.352;2023-12-04T06:05:42;0.30;;;0.30;;
43311;SDS011;30041;48.300;16.352;2023-12-04T06:08:07;0.50;;;0.47;;
43311;SDS011;30041;48.300;16.352;2023-12-04T06:10:32;0.40;;;0.40;;
43311;SDS011;30041;48.300;16.352;2023-12-04T06:12:58;0.30;;;0.30;;
43311;SDS011;30041;48.300;16.352;2023-12-04T06:15:23;0.43;;;0.40;;
43311;SDS011;30041;48.300;16.352;2023-12-04T06:17:48;0.73;;;0.52;;
43311;SDS011;30041;48.300;16.352;2023-12-04T06:20:13;0.60;;;0.40;;
43311;SDS011;30041;48.300;16.352;2023-12-04T06:22:39;0.90;;;0.50;;
43311;SDS011;30041;48.300;16.352;2023-12-04T06:25:05;0.52;;;0.40;;
43311;SDS011;30041;48.300;16.352;2023-12-04T06:27:31;0.40;;;0.30;;
43311;SDS011;30041;48.300;16.352;2023-12-04T06:29:56;0.38;;;0.30;;
43311;SDS011;30041;48.300;16.352;2023-12-04T06:32:22;0.45;;;0.35;;
43311;SDS011;30041;48.300;16.352;2023-12-04T06:34:47;0.77;;;0.60;;
43311;SDS011;30041;48.300;16.352;2023-12-04T06:37:13;0.65;;;0.45;;
43311;SDS011;30041;48.300;16.352;2023-12-04T06:39:39;2.38;;;1.17;;
43311;SDS011;30041;48.300;16.352;2023-12-04T06:42:05;6.55;;;2.20;;
43311;SDS011;30041;48.300;16.352;2023-12-04T06:44:31;6.43;;;2.47;;
43311;SDS011;30041;48.300;16.352;2023-12-04T06:46:57;6.05;;;2.45;;
43311;SDS011;30041;48.300;16.352;2023-12-04T06:49:25;6.28;;;2.67;;
43311;SDS011;30041;48.300;16.352;2023-12-04T06:51:55;7.40;;;2.80;;
43311;SDS011;30041;48.300;16.352;2023-12-04T06:54:20;7.03;;;2.50;;
43311;SDS011;30041;48.300;16.352;2023-12-04T06:56:45;4.75;;;2.72;;
43311;SDS011;30041;48.300;16.352;2023-12-04T06:59:11;6.68;;;2.90;;
43311;SDS011;30041;48.300;16.352;2023-12-04T07:01:36;4.65;;;2.42;;
43311;SDS011;30041;48.300;16.352;2023-12-04T07:04:01;4.93;;;2.50;;
43311;SDS011;30041;48.300;16.352;2023-12-04T07:06:27;3.75;;;2.33;;
43311;SDS011;30041;48.300;16.352;2023-12-04T07:08:52;18.58;;;3.63;;
43311;SDS011;30041;48.300;16.352;2023-12-04T07:11:18;8.35;;;3.10;;
43311;SDS011;30041;48.300;16.352;2023-12-04T07:13:43;7.38;;;3.05;;
43311;SDS011;30041;48.300;16.352;2023-12-04T07:16:08;7.70;;;2.80;;
43311;SDS011;30041;48.300;16.352;2023-12-04T07:18:34;9.85;;;2.83;;
43311;SDS011;30041;48.300;16.352;2023-12-04T07:20:59;5.50;;;2.70;;
43311;SDS011;30041;48.300;16.352;2023-12-04T07:23:25;7.03;;;2.90;;
43311;SDS011;30041;48.300;16.352;2023-12-04T07:25:50;6.05;;;2.97;;
43311;SDS011;30041;48.300;16.352;2023-12-04T07:28:16;6.22;;;2.63;;
43311;SDS011;30041;48.300;16.352;2023-12-04T07:30:41;5.40;;;2.67;;
43311;SDS011;30041;48.300;16.352;2023-12-04T07:33:08;4.38;;;2.60;;
43311;SDS011;30041;48.300;16.352;2023-12-04T07:35:33;4.82;;;2.75;;
43311;SDS011;30041;48.300;16.352;2023-12-04T07:37:58;4.75;;;2.42;;
43311;SDS011;30041;48.300;16.352;2023-12-04T07:40:24;5.70;;;2.78;;
43311;SDS011;30041;48.300;16.352;2023-12-04T07:42:49;5.10;;;2.80;;
43311;SDS011;30041;48.300;16.352;2023-12-04T07:45:14;4.50;;;2.70;;
43311;SDS011;30041;48.300;16.352;2023-12-04T07:47:40;5.03;;;2.85;;
43311;SDS011;30041;48.300;16.352;2023-12-04T07:50:05;5.13;;;2.80;;
43311;SDS011;30041;48.300;16.352;2023-12-04T07:52:31;6.45;;;3.60;;
43311;SDS011;30041;48.300;16.352;2023-12-04T07:54:56;7.30;;;3.53;;
43311;SDS011;30041;48.300;16.352;2023-12-04T07:57:22;6.55;;;3.15;;
43311;SDS011;30041;48.300;16.352;2023-12-04T07:59:48;5.88;;;3.03;;
43311;SDS011;30041;48.300;16.352;2023-12-04T08:02:13;5.03;;;3.00;;
43311;SDS011;30041;48.300;16.352;2023-12-04T08:04:38;4.93;;;2.88;;
43311;SDS011;30041;48.300;16.352;2023-12-04T08:07:04;5.00;;;2.90;;
43311;SDS011;30041;48.300;16.352;2023-12-04T08:09:29;5.07;;;2.65;;
43311;SDS011;30041;48.300;16.352;2023-12-04T08:11:54;5.38;;;3.08;;
43311;SDS011;30041;48.300;16.352;2023-12-04T08:14:20;6.28;;;2.78;;
43311;SDS011;30041;48.300;16.352;2023-12-04T08:16:45;5.38;;;2.47;;
43311;SDS011;30041;48.300;16.352;2023-12-04T08:19:13;5.20;;;2.75;;
43311;SDS011;30041;48.300;16.352;2023-12-04T08:21:38;4.95;;;2.85;;
43311;SDS011;30041;48.300;16.352;2023-12-04T08:24:03;6.95;;;2.90;;
43311;SDS011;30041;48.300;16.352;2023-12-04T08:26:29;4.32;;;2.35;;
43311;SDS011;30041;48.300;16.352;2023-12-04T08:28:54;5.97;;;2.40;;
43311;SDS011;30041;48.300;16.352;2023-12-04T08:31:20;6.05;;;2.90;;
43311;SDS011;30041;48.300;16.352;2023-12-04T08:33:45;4.03;;;2.30;;
43311;SDS011;30041;48.300;16.352;2023-12-04T08:36:11;4.32;;;2.35;;
43311;SDS011;30041;48.300;16.352;2023-12-04T08:38:37;3.53;;;2.42;;
43311;SDS011;30041;48.300;16.352;2023-12-04T08:41:03;4.13;;;2.58;;
43311;SDS011;30041;48.300;16.352;2023-12-04T08:43:29;4.70;;;2.53;;
43311;SDS011;30041;48.300;16.352;2023-12-04T08:45:54;3.90;;;2.42;;
43311;SDS011;30041;48.300;16.352;2023-12-04T08:48:20;3.92;;;2.33;;
43311;SDS011;30041;48.300;16.352;2023-12-04T08:50:46;4.32;;;2.60;;
43311;SDS011;30041;48.300;16.352;2023-12-04T08:53:12;3.85;;;2.33;;
43311;SDS011;30041;48.300;16.352;2023-12-04T08:55:37;3.45;;;2.35;;
43311;SDS011;30041;48.300;16.352;2023-12-04T08:58:03;3.83;;;2.25;;
43311;SDS011;30041;48.300;16.352;2023-12-04T09:00:28;3.28;;;2.40;;
43311;SDS011;30041;48.300;16.352;2023-12-04T09:02:53;3.60;;;2.20;;
43311;SDS011;30041;48.300;16.352;2023-12-04T09:05:19;3.80;;;2.33;;
43311;SDS011;30041;48.300;16.352;2023-12-04T09:07:44;3.05;;;2.13;;
43311;SDS011;30041;48.300;16.352;2023-12-04T09:10:10;3.88;;;2.30;;
43311;SDS011;30041;48.300;16.352;2023-12-04T09:12:35;4.40;;;2.53;;
43311;SDS011;30041;48.300;16.352;2023-12-04T09:15:01;4.50;;;2.50;;
43311;SDS011;30041;48.300;16.352;2023-12-04T09:17:26;3.42;;;2.47;;
43311;SDS011;30041;48.300;16.352;2023-12-04T09:19:51;5.00;;;2.60;;
43311;SDS011;30041;48.300;16.352;2023-12-04T09:22:16;3.72;;;2.60;;
43311;SDS011;30041;48.300;16.352;2023-12-04T09:24:42;3.95;;;2.70;;
43311;SDS011;30041;48.300;16.352;2023-12-04T09:27:10;4.80;;;2.20;;
43311;SDS011;30041;48.300;16.352;2023-12-04T09:29:36;4.10;;;2.30;;
43311;SDS011;30041;48.300;16.352;2023-12-04T09:32:01;3.78;;;2.55;;
43311;SDS011;30041;48.300;16.352;2023-12-04T09:34:27;4.88;;;2.47;;
43311;SDS011;30041;48.300;16.352;2023-12-04T09:36:52;5.28;;;2.40;;
43311;SDS011;30041;48.300;16.352;2023-12-04T09:39:17;3.78;;;2.40;;
43311;SDS011;30041;48.300;16.352;2023-12-04T09:41:43;3.83;;;2.38;;
43311;SDS011;30041;48.300;16.352;2023-12-04T09:44:10;4.15;;;2.80;;
43311;SDS011;30041;48.300;16.352;2023-12-04T09:46:36;4.93;;;2.47;;
43311;SDS011;30041;48.300;16.352;2023-12-04T09:49:03;3.35;;;2.28;;
43311;SDS011;30041;48.300;16.352;2023-12-04T09:51:29;2.92;;;2.10;;
43311;SDS011;30041;48.300;16.352;2023-12-04T09:53:55;4.82;;;2.38;;
43311;SDS011;30041;48.300;16.352;2023-12-04T09:56:22;3.00;;;2.22;;
43311;SDS011;30041;48.300;16.352;2023-12-04T09:58:50;3.92;;;2.60;;
43311;SDS011;30041;48.300;16.352;2023-12-04T10:01:21;3.53;;;2.22;;
43311;SDS011;30041;48.300;16.352;2023-12-04T10:03:46;2.97;;;2.05;;
43311;SDS011;30041;48.300;16.352;2023-12-04T10:06:12;3.63;;;2.22;;
43311;SDS011;30041;48.300;16.352;2023-12-04T10:08:40;3.28;;;2.40;;
43311;SDS011;30041;48.300;16.352;2023-12-04T10:11:06;3.60;;;2.20;;
43311;SDS011;30041;48.300;16.352;2023-12-04T10:13:31;3.40;;;1.92;;
43311;SDS011;30041;48.300;16.352;2023-12-04T10:15:57;3.90;;;2.45;;
43311;SDS011;30041;48.300;16.352;2023-12-04T10:18:26;2.88;;;2.15;;
43311;SDS011;30041;48.300;16.352;2023-12-04T10:20:52;3.42;;;2.00;;
43311;SDS011;30041;48.300;16.352;2023-12-04T10:23:18;3.78;;;2.13;;
43311;SDS011;30041;48.300;16.352;2023-12-04T10:25:44;4.32;;;2.40;;
43311;SDS011;30041;48.300;16.352;2023-12-04T10:28:10;3.22;;;2.15;;
43311;SDS011;30041;48.300;16.352;2023-12-04T10:30:37;3.60;;;2.65;;
43311;SDS011;30041;48.300;16.352;2023-12-04T10:33:04;3.22;;;2.30;;
43311;SDS011;30041;48.300;16.352;2023-12-04T10:35:31;3.70;;;2.40;;
43311;SDS011;30041;48.300;16.352;2023-12-04T10:37:58;3.08;;;2.13;;
43311;SDS011;30041;48.300;16.352;2023-12-04T10:40:27;3.85;;;2.50;;
43311;SDS011;30041;48.300;16.352;2023-12-04T10:43:10;3.05;;;2.35;;
43311;SDS011;30041;48.300;16.352;2023-12-04T10:45:43;3.58;;;2.05;;
43311;SDS011;30041;48.300;16.352;2023-12-04T10:48:10;2.97;;;2.15;;
43311;SDS011;30041;48.300;16.352;2023-12-04T10:50:40;3.15;;;2.45;;
43311;SDS011;30041;48.300;16.352;2023-12-04T10:53:07;2.83;;;2.17;;
43311;SDS011;30041;48.300;16.352;2023-12-04T10:55:34;3.35;;;2.30;;
43311;SDS011;30041;48.300;16.352;2023-12-04T10:58:01;3.97;;;2.40;;
43311;SDS011;30041;48.300;16.352;2023-12-04T11:00:27;2.40;;;1.85;;
43311;SDS011;30041;48.300;16.352;2023-12-04T11:02:55;2.47;;;1.85;;
43311;SDS011;30041;48.300;16.352;2023-12-04T11:05:22;3.00;;;2.20;;
43311;SDS011;30041;48.300;16.352;2023-12-04T11:07:56;2.67;;;1.88;;
43311;SDS011;30041;48.300;16.352;2023-12-04T11:10:22;3.90;;;2.30;;
43311;SDS011;30041;48.300;16.352;2023-12-04T11:12:48;2.88;;;2.22;;
43311;SDS011;30041;48.300;16.352;2023-12-04T11:15:21;2.45;;;1.88;;
43311;SDS011;30041;48.300;16.352;2023-12-04T11:17:49;3.22;;;2.10;;
43311;SDS011;30041;48.300;16.352;2023-12-04T11:20:23;2.72;;;2.20;;
43311;SDS011;30041;48.300;16.352;2023-12-04T11:22:52;3.90;;;2.20;;
43311;SDS011;30041;48.300;16.352;2023-12-04T11:25:20;3.40;;;2.17;;
43311;SDS011;30041;48.300;16.352;2023-12-04T11:27:46;2.90;;;2.35;;
43311;SDS011;30041;48.300;16.352;2023-12-04T11:30:12;2.83;;;1.90;;
43311;SDS011;30041;48.300;16.352;2023-12-04T11:32:44;3.78;;;2.22;;
43311;SDS011;30041;48.300;16.352;2023-12-04T11:35:17;3.05;;;2.13;;
43311;SDS011;30041;48.300;16.352;2023-12-04T11:37:46;3.58;;;2.53;;
43311;SDS011;30041;48.300;16.352;2023-12-04T11:40:12;3.80;;;2.50;;
43311;SDS011;30041;48.300;16.352;2023-12-04T11:42:40;3.10;;;2.45;;
43311;SDS011;30041;48.300;16.352;2023-12-04T11:45:06;3.17;;;2.20;;
43311;SDS011;30041;48.300;16.352;2023-12-04T11:47:48;4.78;;;2.50;;
43311;SDS011;30041;48.300;16.352;2023-12-04T11:50:14;3.70;;;2.78;;
43311;SDS011;30041;48.300;16.352;2023-12-04T11:52:40;3.78;;;2.38;;
43311;SDS011;30041;48.300;16.352;2023-12-04T11:55:06;3.55;;;2.38;;
43311;SDS011;30041;48.300;16.352;2023-12-04T11:57:32;4.10;;;2.65;;
43311;SDS011;30041;48.300;16.352;2023-12-04T12:00:08;4.28;;;2.30;;
43311;SDS011;30041;48.300;16.352;2023-12-04T12:02:34;3.95;;;2.50;;
43311;SDS011;30041;48.300;16.352;2023-12-04T12:04:59;4.03;;;2.10;;
43311;SDS011;30041;48.300;16.352;2023-12-04T12:07:25;3.33;;;2.30;;
43311;SDS011;30041;48.300;16.352;2023-12-04T12:09:51;3.38;;;2.38;;
43311;SDS011;30041;48.300;16.352;2023-12-04T12:12:16;3.47;;;2.42;;
43311;SDS011;30041;48.300;16.352;2023-12-04T12:14:42;3.88;;;2.67;;
43311;SDS011;30041;48.300;16.352;2023-12-04T12:17:07;3.53;;;2.50;;
43311;SDS011;30041;48.300;16.352;2023-12-04T12:19:33;3.67;;;2.35;;
43311;SDS011;30041;48.300;16.352;2023-12-04T12:21:58;4.20;;;2.67;;
43311;SDS011;30041;48.300;16.352;2023-12-04T12:24:24;3.40;;;2.55;;
43311;SDS011;30041;48.300;16.352;2023-12-04T12:26:49;3.05;;;2.20;;
43311;SDS011;30041;48.300;16.352;2023-12-04T12:29:15;3.30;;;2.33;;
43311;SDS011;30041;48.300;16.352;2023-12-04T12:31:40;3.90;;;2.53;;
43311;SDS011;30041;48.300;16.352;2023-12-04T12:34:06;3.15;;;2.17;;
43311;SDS011;30041;48.300;16.352;2023-12-04T12:36:31;3.22;;;2.40;;
43311;SDS011;30041;48.300;16.352;2023-12-04T12:38:56;3.30;;;2.30;;
43311;SDS011;30041;48.300;16.352;2023-12-04T12:41:22;3.15;;;2.22;;
43311;SDS011;30041;48.300;16.352;2023-12-04T12:43:51;3.60;;;2.58;;
43311;SDS011;30041;48.300;16.352;2023-12-04T12:46:17;3.00;;;2.20;;
43311;SDS011;30041;48.300;16.352;2023-12-04T12:48:42;3.33;;;2.35;;
43311;SDS011;30041;48.300;16.352;2023-12-04T12:51:08;3.78;;;2.35;;
43311;SDS011;30041;48.300;16.352;2023-12-04T12:53:33;3.38;;;2.33;;
43311;SDS011;30041;48.300;16.352;2023-12-04T12:55:59;3.60;;;2.45;;
43311;SDS011;30041;48.300;16.352;2023-12-04T12:58:25;3.13;;;2.20;;
43311;SDS011;30041;48.300;16.352;2023-12-04T13:00:50;3.08;;;2.42;;
43311;SDS011;30041;48.300;16.352;2023-12-04T13:03:16;3.33;;;2.40;;
43311;SDS011;30041;48.300;16.352;2023-12-04T13:05:42;2.78;;;2.20;;
43311;SDS011;30041;48.300;16.352;2023-12-04T13:08:07;2.78;;;2.13;;
43311;SDS011;30041;48.300;16.352;2023-12-04T13:10:33;3.55;;;2.33;;
43311;SDS011;30041;48.300;16.352;2023-12-04T13:12:58;3.20;;;2.10;;
43311;SDS011;30041;48.300;16.352;2023-12-04T13:15:23;3.20;;;2.35;;
43311;SDS011;30041;48.300;16.352;2023-12-04T13:17:49;3.35;;;2.33;;
43311;SDS011;30041;48.300;16.352;2023-12-04T13:20:14;3.05;;;2.30;;
43311;SDS011;30041;48.300;16.352;2023-12-04T13:22:39;3.65;;;2.22;;
43311;SDS011;30041;48.300;16.352;2023-12-04T13:25:05;3.15;;;2.40;;
43311;SDS011;30041;48.300;16.352;2023-12-04T13:27:31;3.88;;;2.40;;
43311;SDS011;30041;48.300;16.352;2023-12-04T13:29:56;3.30;;;2.33;;
43311;SDS011;30041;48.300;16.352;2023-12-04T13:32:22;3.08;;;2.25;;
43311;SDS011;30041;48.300;16.352;2023-12-04T13:34:47;3.75;;;2.40;;
43311;SDS011;30041;48.300;16.352;2023-12-04T13:37:13;2.85;;;2.17;;
43311;SDS011;30041;48.300;16.352;2023-12-04T13:39:38;3.03;;;2.20;;
43311;SDS011;30041;48.300;16.352;2023-12-04T13:42:03;3.53;;;2.50;;
43311;SDS011;30041;48.300;16.352;2023-12-04T13:44:29;3.78;;;2.50;;
43311;SDS011;30041;48.300;16.352;2023-12-04T13:46:54;3.15;;;2.45;;
43311;SDS011;30041;48.300;16.352;2023-12-04T13:49:19;3.42;;;2.28;;
43311;SDS011;30041;48.300;16.352;2023-12-04T13:51:45;2.80;;;2.10;;
43311;SDS011;30041;48.300;16.352;2023-12-04T13:54:10;3.55;;;2.47;;
43311;SDS011;30041;48.300;16.352;2023-12-04T13:56:36;3.72;;;2.65;;
43311;SDS011;30041;48.300;16.352;2023-12-04T13:59:01;3.45;;;2.10;;
43311;SDS011;30041;48.300;16.352;2023-12-04T14:01:26;3.67;;;2.33;;
43311;SDS011;30041;48.300;16.352;2023-12-04T14:03:52;3.72;;;2.70;;
43311;SDS011;30041;48.300;16.352;2023-12-04T14:06:17;3.35;;;2.33;;
43311;SDS011;30041;48.300;16.352;2023-12-04T14:08:43;4.13;;;2.55;;
43311;SDS011;30041;48.300;16.352;2023-12-04T14:11:08;4.03;;;2.30;;
43311;SDS011;30041;48.300;16.352;2023-12-04T14:13:35;3.00;;;2.13;;
43311;SDS011;30041;48.300;16.352;2023-12-04T14:16:00;4.00;;;2.60;;
43311;SDS011;30041;48.300;16.352;2023-12-04T14:18:25;4.18;;;2.80;;
43311;SDS011;30041;48.300;16.352;2023-12-04T14:20:51;4.57;;;2.42;;
43311;SDS011;30041;48.300;16.352;2023-12-04T14:23:17;4.50;;;2.10;;
43311;SDS011;30041;48.300;16.352;2023-12-04T14:25:42;3.25;;;2.25;;